Washington, District of Columbia
Traffic Map
Current Weather Conditions
Washington, District of Columbia
Overcast
Overcast
28°
Feels Like: 28°
Wind Chill: 28° Ceiling: 22000
Heat Index: 28° Visibility: 10mi
Dew Point: 17° Wind: 9mph
Humidity: 51% Direction: 180° (S)
Pressure: 29.95in Gusts: 0mph
Raw Report DataKDCA 031952Z 18008KT 10SM SCT040 SCT120 OVC220 28/17 A2995 RMK AO2 SLP143 T02780167
Traffic Incident Summary
Active as of:
Severity:
Category:
InformationThere was an issue retrieving the traffic information for this location. Please try a different location or try again shortly.
Advertisements
Track Severe Weather on mobile